createdAt,value
2023-04-06T00:02:25.929Z,31.63
2023-04-06T00:06:27.932Z,31.42
2023-04-06T00:10:29.418Z,31.34
2023-04-06T00:14:31.140Z,31.67
2023-04-06T00:18:32.780Z,31.05
2023-04-06T00:22:34.632Z,31.13
2023-04-06T00:26:36.153Z,31.22
2023-04-06T00:30:37.605Z,32.18
2023-04-06T00:34:39.161Z,32.01
2023-04-06T00:38:40.592Z,31.82
2023-04-06T00:42:42.570Z,32.60
2023-04-06T00:46:44.006Z,32.69
2023-04-06T00:50:45.391Z,33.11
2023-04-06T00:54:46.856Z,32.86
2023-04-06T00:58:48.256Z,32.67
2023-04-06T01:02:50.110Z,32.85
2023-04-06T01:06:51.911Z,32.63
2023-04-06T01:10:53.315Z,32.45
2023-04-06T01:14:54.792Z,32.28
2023-04-06T01:18:56.492Z,32.43
2023-04-06T01:22:57.846Z,32.46
2023-04-06T01:26:59.195Z,32.46
2023-04-06T01:31:01.007Z,32.44
2023-04-06T01:35:02.377Z,32.84
2023-04-06T01:39:04.081Z,32.66
2023-04-06T01:43:05.462Z,33.13
2023-04-06T01:47:06.816Z,32.91
2023-04-06T01:51:08.288Z,33.17
2023-04-06T01:55:09.654Z,32.45
2023-04-06T01:59:11.215Z,32.45
2023-04-06T02:03:12.943Z,32.43
2023-04-06T02:07:14.499Z,32.33
2023-04-06T02:11:15.940Z,32.25
2023-04-06T02:15:17.322Z,32.95
2023-04-06T02:19:18.692Z,33.21
2023-04-06T02:23:20.379Z,32.83
2023-04-06T02:27:21.775Z,32.40
2023-04-06T02:31:23.263Z,32.67
2023-04-06T02:35:26.563Z,32.56
2023-04-06T02:39:27.976Z,32.65
2023-04-06T02:43:29.336Z,32.26
2023-04-06T02:47:30.923Z,33.81
2023-04-06T02:51:32.470Z,33.30
2023-04-06T02:55:33.884Z,33.10
2023-04-06T02:59:35.449Z,32.96
2023-04-06T03:03:37.010Z,33.51
2023-04-06T03:07:38.541Z,33.48
2023-04-06T03:11:39.897Z,33.52
2023-04-06T03:15:41.531Z,33.30
2023-04-06T03:19:43.351Z,33.35
2023-04-06T03:23:44.773Z,33.51
2023-04-06T03:27:46.208Z,34.06
2023-04-06T03:31:47.665Z,33.76
2023-04-06T03:35:49.091Z,33.92
2023-04-06T03:39:50.416Z,33.53
2023-04-06T03:43:52.015Z,33.71
2023-04-06T03:47:53.378Z,33.71
2023-04-06T03:51:55.230Z,34.33
2023-04-06T03:55:56.694Z,34.46
2023-04-06T03:59:58.163Z,35.20
2023-04-06T04:03:59.645Z,34.22
2023-04-06T04:08:01.227Z,34.46
2023-04-06T04:12:02.852Z,34.34
2023-04-06T04:16:04.472Z,34.21
2023-04-06T04:20:06.785Z,34.28
2023-04-06T04:24:08.192Z,34.51
2023-04-06T04:28:09.567Z,33.74
2023-04-06T04:32:11.237Z,33.81
2023-04-06T04:36:13.102Z,33.98
2023-04-06T04:40:14.623Z,34.14
2023-04-06T04:44:18.966Z,34.21
2023-04-06T04:48:20.536Z,34.30
2023-04-06T04:52:21.998Z,33.77
2023-04-06T04:56:23.518Z,33.70
2023-04-06T05:00:25.098Z,33.17
2023-04-06T05:04:27.135Z,33.86
2023-04-06T05:08:28.586Z,33.10
2023-04-06T05:12:30.241Z,33.38
2023-04-06T05:16:31.622Z,33.88
2023-04-06T05:20:33.170Z,33.67
2023-04-06T05:24:36.062Z,33.35
2023-04-06T05:28:37.489Z,33.79
2023-04-06T05:32:38.966Z,33.21
2023-04-06T05:36:41.592Z,32.70
2023-04-06T05:40:43.616Z,32.73
2023-04-06T05:44:44.980Z,32.46
2023-04-06T05:48:46.640Z,34.86
2023-04-06T05:52:48.059Z,32.94
2023-04-06T05:56:49.404Z,33.13
2023-04-06T06:00:50.775Z,32.64
2023-04-06T06:04:52.299Z,32.98
2023-04-06T06:08:53.715Z,32.05
2023-04-06T06:12:56.315Z,32.35
2023-04-06T06:16:57.749Z,31.39
2023-04-06T06:20:59.296Z,32.31
2023-04-06T06:25:00.969Z,32.85
2023-04-06T06:29:02.385Z,32.32
2023-04-06T06:33:04.299Z,32.05
2023-04-06T06:37:06.958Z,31.71
2023-04-06T06:41:08.308Z,31.62
2023-04-06T06:45:10.339Z,31.17
2023-04-06T06:49:13.325Z,30.72
2023-04-06T06:53:14.805Z,30.58
2023-04-06T06:57:16.318Z,29.93
2023-04-06T07:01:17.788Z,29.80
2023-04-06T07:05:27.611Z,29.32
2023-04-06T07:09:29.999Z,28.20
2023-04-06T07:13:31.420Z,28.20
2023-04-06T07:17:32.771Z,26.81
2023-04-06T07:21:34.124Z,25.45
2023-04-06T07:25:35.446Z,23.69
2023-04-06T07:29:36.990Z,24.72
2023-04-06T07:33:38.389Z,25.45
2023-04-06T07:37:39.800Z,23.80
2023-04-06T07:41:41.254Z,22.98
2023-04-06T07:45:42.762Z,23.01
2023-04-06T07:49:44.181Z,23.13
2023-04-06T07:53:45.812Z,22.60
2023-04-06T07:57:47.215Z,22.17
2023-04-06T08:01:48.723Z,22.21
2023-04-06T08:05:50.127Z,22.09
2023-04-06T08:09:52.687Z,22.52
2023-04-06T08:13:54.879Z,22.59
2023-04-06T08:17:58.130Z,21.09
2023-04-06T08:21:59.659Z,21.20
2023-04-06T08:26:01.078Z,20.61
2023-04-06T08:30:03.098Z,20.82
2023-04-06T08:34:05.428Z,20.01
2023-04-06T08:38:07.209Z,20.53
2023-04-06T08:42:17.426Z,20.95
2023-04-06T08:46:19.472Z,21.83
2023-04-06T08:50:21.841Z,20.87
2023-04-06T08:54:23.383Z,20.64
2023-04-06T08:58:37.314Z,21.03
2023-04-06T09:02:42.656Z,21.50
2023-04-06T09:06:44.614Z,19.75
2023-04-06T09:10:46.404Z,18.65
2023-04-06T09:14:47.796Z,18.22
2023-04-06T09:18:49.860Z,18.87
2023-04-06T09:22:51.249Z,19.00
2023-04-06T09:26:52.670Z,18.56
2023-04-06T09:30:54.093Z,19.92
2023-04-06T09:35:05.938Z,21.19
2023-04-06T09:39:07.517Z,20.81
2023-04-06T09:43:10.743Z,20.19
2023-04-06T09:47:12.424Z,20.66
2023-04-06T09:51:16.254Z,19.71
2023-04-06T09:55:42.964Z,19.19
2023-04-06T10:00:10.642Z,19.16
2023-04-06T10:04:42.386Z,17.37
2023-04-06T10:08:47.396Z,17.86
2023-04-06T10:12:49.693Z,15.79
2023-04-06T10:16:51.772Z,16.70
2023-04-06T10:21:02.701Z,15.37
2023-04-06T10:25:04.595Z,15.91
2023-04-06T10:29:06.950Z,17.91
2023-04-06T10:33:18.645Z,19.43
2023-04-06T10:37:21.431Z,19.60
2023-04-06T10:41:23.022Z,19.03
2023-04-06T10:45:26.095Z,19.66
2023-04-06T10:49:27.936Z,19.61
2023-04-06T10:53:29.337Z,18.89
2023-04-06T10:57:32.942Z,18.78
2023-04-06T11:01:34.389Z,19.05
2023-04-06T11:05:36.493Z,18.74
2023-04-06T11:09:38.016Z,18.78
2023-04-06T11:13:46.028Z,19.21
2023-04-06T11:17:47.461Z,18.47
2023-04-06T11:21:50.237Z,18.31
2023-04-06T11:25:55.267Z,18.08
2023-04-06T11:29:56.848Z,18.12
2023-04-06T11:33:58.478Z,19.03
2023-04-06T11:38:03.426Z,17.85
2023-04-06T11:42:07.596Z,17.75
2023-04-06T11:46:11.720Z,17.70
2023-04-06T11:50:15.111Z,18.11
2023-04-06T11:54:17.875Z,18.68
2023-04-06T11:58:19.306Z,18.83
2023-04-06T12:02:20.999Z,18.97
2023-04-06T12:06:22.539Z,19.12
2023-04-06T12:10:24.082Z,19.14
2023-04-06T12:14:25.612Z,18.40
2023-04-06T12:18:26.953Z,17.66
2023-04-06T12:22:28.354Z,17.98
2023-04-06T12:26:31.323Z,17.66
2023-04-06T12:30:33.163Z,17.47
2023-04-06T12:34:34.687Z,17.87
2023-04-06T12:38:39.020Z,20.75
2023-04-06T12:42:42.275Z,20.31
2023-04-06T12:46:44.286Z,19.45
2023-04-06T12:50:46.214Z,19.94
2023-04-06T12:54:49.838Z,19.61
2023-04-06T12:58:53.063Z,19.11
2023-04-06T13:02:54.667Z,19.92
2023-04-06T13:06:56.176Z,20.19
2023-04-06T13:10:57.624Z,21.22
2023-04-06T13:14:59.005Z,20.44
2023-04-06T13:19:00.506Z,21.95
2023-04-06T13:23:03.226Z,22.13
2023-04-06T13:27:04.709Z,22.59
2023-04-06T13:31:07.221Z,22.22
2023-04-06T13:35:09.239Z,22.57
2023-04-06T13:39:10.782Z,22.78
2023-04-06T13:43:12.313Z,23.04
2023-04-06T13:47:14.091Z,23.21
2023-04-06T13:51:16.227Z,24.14
2023-04-06T13:55:17.619Z,25.75
2023-04-06T13:59:19.123Z,26.23
2023-04-06T14:03:21.249Z,26.48
2023-04-06T14:07:24.568Z,26.38
2023-04-06T14:11:26.130Z,27.50
2023-04-06T14:15:28.823Z,27.57
2023-04-06T14:19:30.214Z,28.14
2023-04-06T14:23:33.792Z,29.74
2023-04-06T14:27:35.478Z,30.65
2023-04-06T14:31:37.896Z,30.64
2023-04-06T14:35:40.462Z,29.53
2023-04-06T14:39:41.738Z,29.70
2023-04-06T14:43:43.180Z,30.30
2023-04-06T14:47:44.700Z,32.53
2023-04-06T14:51:46.084Z,32.07
2023-04-06T14:55:47.636Z,33.42
2023-04-06T14:59:49.113Z,32.79
2023-04-06T15:03:50.807Z,34.19
2023-04-06T15:07:52.275Z,35.60
2023-04-06T15:11:53.579Z,35.31
2023-04-06T15:15:54.998Z,35.91
2023-04-06T15:19:56.558Z,37.83
2023-04-06T15:23:58.126Z,39.15
2023-04-06T15:28:00.531Z,38.98
2023-04-06T15:32:03.224Z,39.99
2023-04-06T15:36:19.909Z,39.93
2023-04-06T15:40:21.363Z,40.86
2023-04-06T15:44:23.644Z,41.59
2023-04-06T15:48:25.472Z,42.92
2023-04-06T15:52:26.819Z,43.53
2023-04-06T15:56:28.150Z,43.69
2023-04-06T16:00:29.523Z,42.64
2023-04-06T16:04:31.101Z,42.82
2023-04-06T16:08:32.607Z,43.12
2023-04-06T16:12:34.068Z,43.71
2023-04-06T16:16:35.465Z,43.75
2023-04-06T16:20:36.913Z,45.59
2023-04-06T16:24:38.256Z,44.94
2023-04-06T16:28:39.691Z,45.91
2023-04-06T16:32:43.177Z,44.94
2023-04-06T16:36:44.650Z,45.72
2023-04-06T16:40:46.525Z,46.06
2023-04-06T16:44:51.304Z,45.46
2023-04-06T16:48:52.870Z,47.10
2023-04-06T16:52:54.435Z,46.24
2023-04-06T16:56:56.526Z,47.25
2023-04-06T17:01:00.685Z,47.26
2023-04-06T17:05:03.983Z,46.56
2023-04-06T17:09:05.631Z,48.16
2023-04-06T17:13:07.257Z,48.12
2023-04-06T17:17:08.728Z,47.52
2023-04-06T17:21:14.204Z,48.27
2023-04-06T17:25:16.544Z,46.82
2023-04-06T17:29:17.953Z,49.06
2023-04-06T17:33:19.404Z,47.19
2023-04-06T17:37:21.100Z,48.65
2023-04-06T17:41:22.601Z,48.22
2023-04-06T17:45:23.977Z,48.95
2023-04-06T17:49:25.498Z,49.65
2023-04-06T17:53:30.529Z,48.85
2023-04-06T17:57:31.845Z,48.83
2023-04-06T18:01:34.241Z,48.06
2023-04-06T18:05:36.078Z,50.32
2023-04-06T18:09:39.365Z,51.40
2023-04-06T18:13:40.884Z,50.52
2023-04-06T18:17:42.830Z,49.13
2023-04-06T18:21:44.258Z,48.94
2023-04-06T18:25:45.773Z,49.29
2023-04-06T18:29:47.771Z,49.00
2023-04-06T18:33:49.414Z,49.51
2023-04-06T18:37:50.812Z,49.81
2023-04-06T18:41:52.175Z,49.31
2023-04-06T18:45:53.507Z,49.91
2023-04-06T18:49:54.985Z,50.37
2023-04-06T18:53:56.492Z,49.04
2023-04-06T18:57:57.950Z,48.15
2023-04-06T19:01:59.599Z,49.44
2023-04-06T19:06:01.039Z,48.37
2023-04-06T19:10:02.406Z,48.82
2023-04-06T19:14:03.873Z,49.59
2023-04-06T19:18:05.565Z,48.74
2023-04-06T19:22:07.065Z,48.78
2023-04-06T19:26:12.571Z,47.90
2023-04-06T19:30:14.312Z,48.43
2023-04-06T19:34:17.636Z,50.14
2023-04-06T19:38:19.064Z,48.77
2023-04-06T19:42:21.517Z,50.06
2023-04-06T19:46:22.987Z,49.79
2023-04-06T19:50:24.524Z,49.81
2023-04-06T19:54:26.164Z,47.19
2023-04-06T19:58:27.840Z,47.74
2023-04-06T20:02:29.212Z,47.31
2023-04-06T20:06:31.235Z,48.91
2023-04-06T20:10:32.619Z,48.14
2023-04-06T20:14:34.390Z,48.09
2023-04-06T20:18:35.902Z,47.52
2023-04-06T20:22:37.366Z,47.38
2023-04-06T20:26:38.850Z,46.96
2023-04-06T20:30:40.413Z,47.74
2023-04-06T20:34:41.851Z,47.45
2023-04-06T20:38:43.238Z,46.53
2023-04-06T20:42:44.515Z,47.70
2023-04-06T20:46:45.961Z,47.39
2023-04-06T20:50:47.273Z,47.70
2023-04-06T20:54:50.602Z,46.73
2023-04-06T20:58:52.204Z,46.83
2023-04-06T21:02:53.626Z,47.35
2023-04-06T21:06:55.170Z,48.21
2023-04-06T21:10:56.472Z,46.33
2023-04-06T21:14:57.868Z,46.56
2023-04-06T21:18:59.409Z,45.84
2023-04-06T21:23:01.166Z,46.74
2023-04-06T21:27:02.520Z,46.97
2023-04-06T21:31:07.456Z,47.11
2023-04-06T21:35:09.340Z,46.67
2023-04-06T21:39:10.861Z,46.44
2023-04-06T21:43:12.201Z,46.70
2023-04-06T21:47:13.534Z,47.79
2023-04-06T21:51:22.881Z,47.78
2023-04-06T21:55:24.302Z,46.98
2023-04-06T21:59:25.692Z,47.26
2023-04-06T22:03:28.077Z,46.28
2023-04-06T22:07:29.651Z,46.93
2023-04-06T22:11:31.011Z,46.02
2023-04-06T22:15:32.536Z,46.79
2023-04-06T22:19:34.011Z,46.30
2023-04-06T22:23:35.938Z,46.65
2023-04-06T22:27:37.286Z,46.62
2023-04-06T22:31:38.611Z,47.68
2023-04-06T22:35:40.500Z,47.00
2023-04-06T22:39:42.051Z,47.34
2023-04-06T22:43:43.360Z,48.48
2023-04-06T22:47:44.868Z,47.30
2023-04-06T22:51:46.271Z,47.33
2023-04-06T22:55:47.593Z,47.69
2023-04-06T22:59:49.073Z,48.23
2023-04-06T23:03:50.926Z,47.95
2023-04-06T23:07:53.703Z,48.95
2023-04-06T23:11:59.026Z,49.46
2023-04-06T23:16:00.615Z,48.00
2023-04-06T23:20:01.857Z,48.46
2023-04-06T23:24:06.337Z,47.53
2023-04-06T23:28:07.744Z,48.91
2023-04-06T23:32:09.123Z,48.45
2023-04-06T23:36:11.081Z,47.96
2023-04-06T23:40:12.490Z,47.73
2023-04-06T23:44:13.796Z,48.67
2023-04-06T23:48:17.490Z,47.95
2023-04-06T23:52:18.882Z,48.61
2023-04-06T23:56:20.293Z,47.91
